Resolute, Canada
Current Conditions -  °F | °C
As of 9:00 PM on Friday 24 Oct 2014 (Local Time) from CYRB Reporting Station
Light Snow Light Snow  
Wind Chill: -11°   Ceiling: 400
Heat Index:   Visibility: 12mi
Dew Point:   Wind: 9mph
Humidity: 85%   Direction: 360°N
Pressure: 30.23"   Gusts: NA
Location:  74.69°N, 94.91°W
Report Text: CYRB 250200Z 36008KT 12SM -SN OVC004 M16/M18 A3023 RMK ST8SLP247
Loading
Personal Weather Stations






























Interactive Weather Map
Tropical Storm Tracking
New forecast layout! Learn more

10-Day Weather Forecast

Advertisements
Track Severe Weather on mobile